sensor_id;sensor_type;location;lat;lon;timestamp;P1;durP1;ratioP1;P2;durP2;ratioP2
34673;SDS011;20879;55.668;37.858;2023-05-19T00:02:24;7.07;;;5.45;;
34673;SDS011;20879;55.668;37.858;2023-05-19T00:05:02;7.68;;;5.65;;
34673;SDS011;20879;55.668;37.858;2023-05-19T00:07:32;7.85;;;5.82;;
34673;SDS011;20879;55.668;37.858;2023-05-19T00:10:07;5.30;;;4.80;;
34673;SDS011;20879;55.668;37.858;2023-05-19T00:15:07;5.93;;;5.00;;
34673;SDS011;20879;55.668;37.858;2023-05-19T00:17:38;5.68;;;5.07;;
34673;SDS011;20879;55.668;37.858;2023-05-19T00:20:10;8.35;;;5.47;;
34673;SDS011;20879;55.668;37.858;2023-05-19T00:22:41;7.65;;;5.45;;
34673;SDS011;20879;55.668;37.858;2023-05-19T00:25:11;6.05;;;5.03;;
34673;SDS011;20879;55.668;37.858;2023-05-19T00:27:41;5.97;;;4.72;;
34673;SDS011;20879;55.668;37.858;2023-05-19T00:30:10;6.63;;;4.15;;
34673;SDS011;20879;55.668;37.858;2023-05-19T00:32:43;4.80;;;4.20;;
34673;SDS011;20879;55.668;37.858;2023-05-19T00:35:14;6.00;;;4.43;;
34673;SDS011;20879;55.668;37.858;2023-05-19T00:40:12;3.58;;;2.88;;
34673;SDS011;20879;55.668;37.858;2023-05-19T00:42:42;3.65;;;3.35;;
34673;SDS011;20879;55.668;37.858;2023-05-19T00:45:12;3.88;;;3.40;;
34673;SDS011;20879;55.668;37.858;2023-05-19T00:47:46;4.57;;;3.45;;
34673;SDS011;20879;55.668;37.858;2023-05-19T00:50:23;4.43;;;2.90;;
34673;SDS011;20879;55.668;37.858;2023-05-19T00:52:53;2.60;;;2.40;;
34673;SDS011;20879;55.668;37.858;2023-05-19T00:55:24;2.45;;;2.15;;
34673;SDS011;20879;55.668;37.858;2023-05-19T00:58:03;2.15;;;1.55;;
34673;SDS011;20879;55.668;37.858;2023-05-19T01:00:38;2.25;;;1.17;;
34673;SDS011;20879;55.668;37.858;2023-05-19T01:03:08;0.82;;;0.82;;
34673;SDS011;20879;55.668;37.858;2023-05-19T01:05:48;2.30;;;1.30;;
34673;SDS011;20879;55.668;37.858;2023-05-19T01:08:20;2.28;;;1.13;;
34673;SDS011;20879;55.668;37.858;2023-05-19T01:11:06;1.60;;;1.50;;
34673;SDS011;20879;55.668;37.858;2023-05-19T01:13:41;2.58;;;1.50;;
34673;SDS011;20879;55.668;37.858;2023-05-19T01:16:21;1.40;;;1.30;;
34673;SDS011;20879;55.668;37.858;2023-05-19T01:18:59;1.30;;;1.20;;
34673;SDS011;20879;55.668;37.858;2023-05-19T01:27:52;1.60;;;1.40;;
34673;SDS011;20879;55.668;37.858;2023-05-19T01:30:45;1.20;;;1.10;;
34673;SDS011;20879;55.668;37.858;2023-05-19T01:33:25;1.83;;;1.42;;
34673;SDS011;20879;55.668;37.858;2023-05-19T01:36:02;1.45;;;1.05;;
34673;SDS011;20879;55.668;37.858;2023-05-19T01:38:35;3.00;;;1.70;;
34673;SDS011;20879;55.668;37.858;2023-05-19T01:41:07;3.08;;;1.42;;
34673;SDS011;20879;55.668;37.858;2023-05-19T01:43:37;1.40;;;1.30;;
34673;SDS011;20879;55.668;37.858;2023-05-19T01:46:09;1.40;;;1.30;;
34673;SDS011;20879;55.668;37.858;2023-05-19T01:48:39;1.13;;;1.02;;
34673;SDS011;20879;55.668;37.858;2023-05-19T01:51:09;1.40;;;1.10;;
34673;SDS011;20879;55.668;37.858;2023-05-19T01:53:44;1.30;;;1.20;;
34673;SDS011;20879;55.668;37.858;2023-05-19T01:56:14;1.20;;;1.10;;
34673;SDS011;20879;55.668;37.858;2023-05-19T01:58:50;3.10;;;1.13;;
34673;SDS011;20879;55.668;37.858;2023-05-19T02:01:27;1.10;;;0.82;;
34673;SDS011;20879;55.668;37.858;2023-05-19T02:04:10;1.30;;;0.90;;
34673;SDS011;20879;55.668;37.858;2023-05-19T02:06:54;1.30;;;0.80;;
34673;SDS011;20879;55.668;37.858;2023-05-19T02:09:33;2.53;;;0.88;;
34673;SDS011;20879;55.668;37.858;2023-05-19T02:12:13;2.33;;;0.98;;
34673;SDS011;20879;55.668;37.858;2023-05-19T02:14:48;1.23;;;1.00;;
34673;SDS011;20879;55.668;37.858;2023-05-19T02:17:37;1.00;;;0.90;;
34673;SDS011;20879;55.668;37.858;2023-05-19T02:20:40;1.42;;;1.25;;
34673;SDS011;20879;55.668;37.858;2023-05-19T02:23:09;1.40;;;1.30;;
34673;SDS011;20879;55.668;37.858;2023-05-19T02:25:43;1.48;;;1.38;;
34673;SDS011;20879;55.668;37.858;2023-05-19T02:28:24;1.33;;;1.23;;
34673;SDS011;20879;55.668;37.858;2023-05-19T02:30:54;1.33;;;1.23;;
34673;SDS011;20879;55.668;37.858;2023-05-19T02:33:26;2.25;;;1.40;;
34673;SDS011;20879;55.668;37.858;2023-05-19T02:35:55;2.58;;;1.70;;
34673;SDS011;20879;55.668;37.858;2023-05-19T02:38:36;1.85;;;1.75;;
34673;SDS011;20879;55.668;37.858;2023-05-19T02:41:11;3.08;;;2.00;;
34673;SDS011;20879;55.668;37.858;2023-05-19T02:43:41;2.00;;;1.90;;
34673;SDS011;20879;55.668;37.858;2023-05-19T02:46:10;2.78;;;2.10;;
34673;SDS011;20879;55.668;37.858;2023-05-19T02:48:41;2.90;;;2.22;;
34673;SDS011;20879;55.668;37.858;2023-05-19T02:51:11;3.30;;;2.00;;
34673;SDS011;20879;55.668;37.858;2023-05-19T02:53:40;2.85;;;2.08;;
34673;SDS011;20879;55.668;37.858;2023-05-19T02:56:10;3.83;;;2.58;;
34673;SDS011;20879;55.668;37.858;2023-05-19T02:58:45;2.70;;;2.50;;
34673;SDS011;20879;55.668;37.858;2023-05-19T03:01:20;5.20;;;2.47;;
34673;SDS011;20879;55.668;37.858;2023-05-19T03:03:52;4.05;;;2.53;;
34673;SDS011;20879;55.668;37.858;2023-05-19T03:06:21;2.92;;;1.75;;
34673;SDS011;20879;55.668;37.858;2023-05-19T03:08:51;4.45;;;2.08;;
34673;SDS011;20879;55.668;37.858;2023-05-19T03:11:20;4.45;;;2.78;;
34673;SDS011;20879;55.668;37.858;2023-05-19T03:13:51;2.85;;;2.13;;
34673;SDS011;20879;55.668;37.858;2023-05-19T03:16:21;1.95;;;1.60;;
34673;SDS011;20879;55.668;37.858;2023-05-19T03:18:52;3.95;;;2.50;;
34673;SDS011;20879;55.668;37.858;2023-05-19T03:21:27;3.40;;;2.30;;
34673;SDS011;20879;55.668;37.858;2023-05-19T03:23:57;2.72;;;2.00;;
34673;SDS011;20879;55.668;37.858;2023-05-19T03:26:33;3.20;;;2.00;;
34673;SDS011;20879;55.668;37.858;2023-05-19T03:29:07;3.58;;;2.17;;
34673;SDS011;20879;55.668;37.858;2023-05-19T03:31:37;2.78;;;2.40;;
34673;SDS011;20879;55.668;37.858;2023-05-19T03:34:08;2.53;;;2.10;;
34673;SDS011;20879;55.668;37.858;2023-05-19T03:36:42;2.70;;;2.28;;
34673;SDS011;20879;55.668;37.858;2023-05-19T03:41:46;3.72;;;2.60;;
34673;SDS011;20879;55.668;37.858;2023-05-19T03:44:16;2.65;;;2.28;;
34673;SDS011;20879;55.668;37.858;2023-05-19T03:46:45;3.05;;;2.40;;
34673;SDS011;20879;55.668;37.858;2023-05-19T03:49:19;3.88;;;2.47;;
34673;SDS011;20879;55.668;37.858;2023-05-19T03:52:07;3.17;;;2.00;;
34673;SDS011;20879;55.668;37.858;2023-05-19T03:54:56;3.80;;;2.60;;
34673;SDS011;20879;55.668;37.858;2023-05-19T03:57:27;3.65;;;2.60;;
34673;SDS011;20879;55.668;37.858;2023-05-19T03:59:57;3.75;;;2.55;;
34673;SDS011;20879;55.668;37.858;2023-05-19T04:02:26;3.35;;;2.42;;
34673;SDS011;20879;55.668;37.858;2023-05-19T04:05:04;3.55;;;2.42;;
34673;SDS011;20879;55.668;37.858;2023-05-19T04:07:41;4.13;;;2.25;;
34673;SDS011;20879;55.668;37.858;2023-05-19T04:10:18;3.90;;;2.60;;
34673;SDS011;20879;55.668;37.858;2023-05-19T04:12:47;3.90;;;2.60;;
34673;SDS011;20879;55.668;37.858;2023-05-19T04:15:17;3.08;;;2.60;;
34673;SDS011;20879;55.668;37.858;2023-05-19T04:17:46;3.30;;;2.60;;
34673;SDS011;20879;55.668;37.858;2023-05-19T04:20:29;3.45;;;2.85;;
34673;SDS011;20879;55.668;37.858;2023-05-19T04:22:59;3.92;;;2.70;;
34673;SDS011;20879;55.668;37.858;2023-05-19T04:25:48;3.25;;;2.83;;
34673;SDS011;20879;55.668;37.858;2023-05-19T04:28:19;3.40;;;2.40;;
34673;SDS011;20879;55.668;37.858;2023-05-19T04:30:49;5.05;;;3.03;;
34673;SDS011;20879;55.668;37.858;2023-05-19T04:33:19;4.80;;;3.20;;
34673;SDS011;20879;55.668;37.858;2023-05-19T04:35:50;6.00;;;3.10;;
34673;SDS011;20879;55.668;37.858;2023-05-19T04:38:25;6.28;;;3.50;;
34673;SDS011;20879;55.668;37.858;2023-05-19T04:41:00;5.82;;;3.05;;
34673;SDS011;20879;55.668;37.858;2023-05-19T04:43:36;5.10;;;3.70;;
34673;SDS011;20879;55.668;37.858;2023-05-19T04:46:16;4.55;;;3.50;;
34673;SDS011;20879;55.668;37.858;2023-05-19T04:48:55;3.92;;;3.17;;
34673;SDS011;20879;55.668;37.858;2023-05-19T04:51:28;5.50;;;3.42;;
34673;SDS011;20879;55.668;37.858;2023-05-19T04:54:00;3.78;;;3.20;;
34673;SDS011;20879;55.668;37.858;2023-05-19T04:56:29;5.53;;;3.50;;
34673;SDS011;20879;55.668;37.858;2023-05-19T04:59:00;7.22;;;3.83;;
34673;SDS011;20879;55.668;37.858;2023-05-19T05:01:30;5.93;;;3.92;;
34673;SDS011;20879;55.668;37.858;2023-05-19T05:04:00;8.40;;;4.28;;
34673;SDS011;20879;55.668;37.858;2023-05-19T05:06:37;5.05;;;3.78;;
34673;SDS011;20879;55.668;37.858;2023-05-19T05:09:08;5.30;;;3.90;;
34673;SDS011;20879;55.668;37.858;2023-05-19T05:11:38;7.85;;;4.13;;
34673;SDS011;20879;55.668;37.858;2023-05-19T05:14:08;6.05;;;4.40;;
34673;SDS011;20879;55.668;37.858;2023-05-19T05:16:38;10.15;;;4.53;;
34673;SDS011;20879;55.668;37.858;2023-05-19T05:19:13;6.75;;;4.35;;
34673;SDS011;20879;55.668;37.858;2023-05-19T05:21:46;6.60;;;4.43;;
34673;SDS011;20879;55.668;37.858;2023-05-19T05:24:18;4.50;;;3.10;;
34673;SDS011;20879;55.668;37.858;2023-05-19T05:26:53;3.88;;;3.25;;
34673;SDS011;20879;55.668;37.858;2023-05-19T05:29:24;7.00;;;4.65;;
34673;SDS011;20879;55.668;37.858;2023-05-19T05:31:54;6.88;;;3.45;;
34673;SDS011;20879;55.668;37.858;2023-05-19T05:34:24;5.18;;;3.63;;
34673;SDS011;20879;55.668;37.858;2023-05-19T05:37:00;6.18;;;4.55;;
34673;SDS011;20879;55.668;37.858;2023-05-19T05:39:35;4.43;;;3.00;;
34673;SDS011;20879;55.668;37.858;2023-05-19T05:42:10;6.07;;;4.65;;
34673;SDS011;20879;55.668;37.858;2023-05-19T05:44:40;6.75;;;4.72;;
34673;SDS011;20879;55.668;37.858;2023-05-19T05:47:10;5.80;;;4.40;;
34673;SDS011;20879;55.668;37.858;2023-05-19T05:49:41;5.57;;;4.75;;
34673;SDS011;20879;55.668;37.858;2023-05-19T05:52:16;6.00;;;4.53;;
34673;SDS011;20879;55.668;37.858;2023-05-19T05:54:51;7.38;;;4.55;;
34673;SDS011;20879;55.668;37.858;2023-05-19T05:57:28;6.70;;;4.63;;
34673;SDS011;20879;55.668;37.858;2023-05-19T06:00:00;7.20;;;4.30;;
34673;SDS011;20879;55.668;37.858;2023-05-19T06:02:47;8.85;;;4.63;;
34673;SDS011;20879;55.668;37.858;2023-05-19T06:05:19;7.15;;;4.50;;
34673;SDS011;20879;55.668;37.858;2023-05-19T06:07:51;6.40;;;5.07;;
34673;SDS011;20879;55.668;37.858;2023-05-19T06:10:24;5.63;;;4.75;;
34673;SDS011;20879;55.668;37.858;2023-05-19T06:12:54;6.78;;;4.40;;
34673;SDS011;20879;55.668;37.858;2023-05-19T06:15:25;5.68;;;4.68;;
34673;SDS011;20879;55.668;37.858;2023-05-19T06:18:19;13.30;;;8.98;;
34673;SDS011;20879;55.668;37.858;2023-05-19T06:20:51;7.18;;;5.45;;
34673;SDS011;20879;55.668;37.858;2023-05-19T06:23:28;6.57;;;4.55;;
34673;SDS011;20879;55.668;37.858;2023-05-19T06:25:59;7.55;;;5.72;;
34673;SDS011;20879;55.668;37.858;2023-05-19T06:28:33;10.55;;;6.35;;
34673;SDS011;20879;55.668;37.858;2023-05-19T06:31:03;6.57;;;5.20;;
34673;SDS011;20879;55.668;37.858;2023-05-19T06:34:00;5.80;;;5.20;;
34673;SDS011;20879;55.668;37.858;2023-05-19T06:36:30;5.97;;;5.35;;
34673;SDS011;20879;55.668;37.858;2023-05-19T06:39:03;3.90;;;3.10;;
34673;SDS011;20879;55.668;37.858;2023-05-19T06:41:37;6.13;;;5.50;;
34673;SDS011;20879;55.668;37.858;2023-05-19T06:44:07;7.72;;;5.63;;
34673;SDS011;20879;55.668;37.858;2023-05-19T06:46:37;8.40;;;5.63;;
34673;SDS011;20879;55.668;37.858;2023-05-19T06:49:06;7.57;;;6.05;;
34673;SDS011;20879;55.668;37.858;2023-05-19T06:51:42;7.90;;;5.22;;
34673;SDS011;20879;55.668;37.858;2023-05-19T06:54:15;9.68;;;6.22;;
34673;SDS011;20879;55.668;37.858;2023-05-19T06:56:49;11.40;;;6.75;;
34673;SDS011;20879;55.668;37.858;2023-05-19T06:59:19;7.95;;;6.28;;
34673;SDS011;20879;55.668;37.858;2023-05-19T07:01:50;9.52;;;6.78;;
34673;SDS011;20879;55.668;37.858;2023-05-19T07:04:19;8.13;;;6.35;;
34673;SDS011;20879;55.668;37.858;2023-05-19T07:06:49;10.50;;;6.78;;
34673;SDS011;20879;55.668;37.858;2023-05-19T07:09:26;4.47;;;3.60;;
34673;SDS011;20879;55.668;37.858;2023-05-19T07:12:01;7.80;;;6.50;;
34673;SDS011;20879;55.668;37.858;2023-05-19T07:14:31;8.35;;;6.38;;
34673;SDS011;20879;55.668;37.858;2023-05-19T07:17:02;7.30;;;5.47;;
34673;SDS011;20879;55.668;37.858;2023-05-19T07:19:35;6.45;;;4.97;;
34673;SDS011;20879;55.668;37.858;2023-05-19T07:22:13;8.63;;;6.03;;
34673;SDS011;20879;55.668;37.858;2023-05-19T07:24:45;6.15;;;5.05;;
34673;SDS011;20879;55.668;37.858;2023-05-19T07:27:16;17.67;;;6.80;;
34673;SDS011;20879;55.668;37.858;2023-05-19T07:29:46;9.18;;;7.13;;
34673;SDS011;20879;55.668;37.858;2023-05-19T07:32:15;9.55;;;6.22;;
34673;SDS011;20879;55.668;37.858;2023-05-19T07:34:55;7.95;;;5.45;;
34673;SDS011;20879;55.668;37.858;2023-05-19T07:37:24;7.97;;;5.97;;
34673;SDS011;20879;55.668;37.858;2023-05-19T07:39:56;8.35;;;6.57;;
34673;SDS011;20879;55.668;37.858;2023-05-19T07:42:30;10.02;;;6.75;;
34673;SDS011;20879;55.668;37.858;2023-05-19T07:45:00;8.75;;;4.95;;
34673;SDS011;20879;55.668;37.858;2023-05-19T07:47:31;11.63;;;7.43;;
34673;SDS011;20879;55.668;37.858;2023-05-19T07:50:01;7.88;;;6.68;;
34673;SDS011;20879;55.668;37.858;2023-05-19T07:52:31;7.93;;;6.68;;
34673;SDS011;20879;55.668;37.858;2023-05-19T07:57:54;9.73;;;6.43;;
34673;SDS011;20879;55.668;37.858;2023-05-19T08:00:23;10.70;;;7.13;;
34673;SDS011;20879;55.668;37.858;2023-05-19T08:02:54;8.82;;;7.20;;
34673;SDS011;20879;55.668;37.858;2023-05-19T08:05:24;9.82;;;7.25;;
34673;SDS011;20879;55.668;37.858;2023-05-19T08:10:47;9.75;;;6.70;;
34673;SDS011;20879;55.668;37.858;2023-05-19T08:13:16;8.75;;;6.60;;
34673;SDS011;20879;55.668;37.858;2023-05-19T08:15:46;8.68;;;6.47;;
34673;SDS011;20879;55.668;37.858;2023-05-19T08:18:17;9.83;;;6.30;;
34673;SDS011;20879;55.668;37.858;2023-05-19T08:20:52;13.45;;;6.53;;
34673;SDS011;20879;55.668;37.858;2023-05-19T08:23:24;9.27;;;7.13;;
34673;SDS011;20879;55.668;37.858;2023-05-19T08:25:55;8.52;;;5.10;;
34673;SDS011;20879;55.668;37.858;2023-05-19T08:28:25;8.95;;;6.60;;
34673;SDS011;20879;55.668;37.858;2023-05-19T08:30:54;10.73;;;7.60;;
34673;SDS011;20879;55.668;37.858;2023-05-19T08:33:24;11.77;;;7.18;;
34673;SDS011;20879;55.668;37.858;2023-05-19T08:35:54;11.38;;;6.50;;
34673;SDS011;20879;55.668;37.858;2023-05-19T08:38:24;14.88;;;6.35;;
34673;SDS011;20879;55.668;37.858;2023-05-19T08:40:56;7.72;;;5.65;;
34673;SDS011;20879;55.668;37.858;2023-05-19T08:43:25;10.27;;;6.75;;
34673;SDS011;20879;55.668;37.858;2023-05-19T08:45:55;11.18;;;6.60;;
34673;SDS011;20879;55.668;37.858;2023-05-19T08:48:28;8.43;;;5.72;;
34673;SDS011;20879;55.668;37.858;2023-05-19T08:51:01;10.80;;;6.40;;
34673;SDS011;20879;55.668;37.858;2023-05-19T08:53:57;8.52;;;5.95;;
34673;SDS011;20879;55.668;37.858;2023-05-19T08:59:10;11.45;;;6.97;;
34673;SDS011;20879;55.668;37.858;2023-05-19T09:01:41;8.82;;;6.18;;
34673;SDS011;20879;55.668;37.858;2023-05-19T09:06:48;7.88;;;5.38;;
34673;SDS011;20879;55.668;37.858;2023-05-19T09:09:18;8.80;;;6.05;;
34673;SDS011;20879;55.668;37.858;2023-05-19T09:11:54;7.95;;;5.47;;
34673;SDS011;20879;55.668;37.858;2023-05-19T09:14:31;7.53;;;4.95;;
34673;SDS011;20879;55.668;37.858;2023-05-19T09:17:01;11.27;;;5.18;;
34673;SDS011;20879;55.668;37.858;2023-05-19T09:19:35;7.85;;;4.88;;
34673;SDS011;20879;55.668;37.858;2023-05-19T09:22:14;7.43;;;5.07;;
34673;SDS011;20879;55.668;37.858;2023-05-19T09:24:46;8.52;;;5.40;;
34673;SDS011;20879;55.668;37.858;2023-05-19T09:27:21;6.38;;;4.88;;
34673;SDS011;20879;55.668;37.858;2023-05-19T09:29:51;5.57;;;3.13;;
34673;SDS011;20879;55.668;37.858;2023-05-19T09:32:24;3.53;;;2.40;;
34673;SDS011;20879;55.668;37.858;2023-05-19T09:34:54;11.30;;;4.53;;
34673;SDS011;20879;55.668;37.858;2023-05-19T09:37:24;7.53;;;4.40;;
34673;SDS011;20879;55.668;37.858;2023-05-19T09:39:56;6.00;;;3.92;;
34673;SDS011;20879;55.668;37.858;2023-05-19T09:42:29;4.95;;;3.15;;
34673;SDS011;20879;55.668;37.858;2023-05-19T09:45:06;7.35;;;3.55;;
34673;SDS011;20879;55.668;37.858;2023-05-19T09:47:37;6.07;;;3.38;;
34673;SDS011;20879;55.668;37.858;2023-05-19T09:50:08;8.85;;;3.70;;
34673;SDS011;20879;55.668;37.858;2023-05-19T09:52:41;7.28;;;3.58;;
34673;SDS011;20879;55.668;37.858;2023-05-19T09:55:12;7.70;;;3.78;;
34673;SDS011;20879;55.668;37.858;2023-05-19T09:57:54;6.03;;;3.72;;
34673;SDS011;20879;55.668;37.858;2023-05-19T10:00:25;7.32;;;4.10;;
34673;SDS011;20879;55.668;37.858;2023-05-19T10:02:56;6.50;;;3.15;;
34673;SDS011;20879;55.668;37.858;2023-05-19T10:05:28;4.50;;;3.42;;
34673;SDS011;20879;55.668;37.858;2023-05-19T10:07:58;4.20;;;2.75;;
34673;SDS011;20879;55.668;37.858;2023-05-19T10:10:33;4.65;;;2.75;;
34673;SDS011;20879;55.668;37.858;2023-05-19T10:13:06;7.13;;;3.20;;
34673;SDS011;20879;55.668;37.858;2023-05-19T10:15:36;5.25;;;2.70;;
34673;SDS011;20879;55.668;37.858;2023-05-19T10:18:24;8.95;;;2.80;;
34673;SDS011;20879;55.668;37.858;2023-05-19T10:20:59;6.57;;;2.33;;
34673;SDS011;20879;55.668;37.858;2023-05-19T10:23:30;4.15;;;2.60;;
34673;SDS011;20879;55.668;37.858;2023-05-19T10:26:00;3.42;;;2.45;;
34673;SDS011;20879;55.668;37.858;2023-05-19T10:28:39;4.38;;;2.40;;
34673;SDS011;20879;55.668;37.858;2023-05-19T10:31:15;3.92;;;2.50;;
34673;SDS011;20879;55.668;37.858;2023-05-19T10:34:00;2.60;;;2.00;;
34673;SDS011;20879;55.668;37.858;2023-05-19T10:36:57;3.85;;;1.80;;
34673;SDS011;20879;55.668;37.858;2023-05-19T10:39:37;2.70;;;1.95;;
34673;SDS011;20879;55.668;37.858;2023-05-19T10:42:17;6.78;;;2.03;;
34673;SDS011;20879;55.668;37.858;2023-05-19T10:45:06;2.65;;;1.73;;
34673;SDS011;20879;55.668;37.858;2023-05-19T10:47:41;5.32;;;1.67;;
34673;SDS011;20879;55.668;37.858;2023-05-19T10:52:51;4.15;;;1.90;;
34673;SDS011;20879;55.668;37.858;2023-05-19T10:58:36;6.18;;;1.52;;
34673;SDS011;20879;55.668;37.858;2023-05-19T11:01:09;3.65;;;2.05;;
34673;SDS011;20879;55.668;37.858;2023-05-19T11:03:43;3.72;;;1.88;;
34673;SDS011;20879;55.668;37.858;2023-05-19T11:06:23;2.10;;;1.70;;
34673;SDS011;20879;55.668;37.858;2023-05-19T11:08:57;2.67;;;1.60;;
34673;SDS011;20879;55.668;37.858;2023-05-19T11:11:44;12.27;;;2.85;;
34673;SDS011;20879;55.668;37.858;2023-05-19T11:14:16;3.97;;;1.50;;
34673;SDS011;20879;55.668;37.858;2023-05-19T11:16:59;5.10;;;2.00;;
34673;SDS011;20879;55.668;37.858;2023-05-19T11:19:29;5.47;;;1.75;;
34673;SDS011;20879;55.668;37.858;2023-05-19T11:22:06;5.10;;;2.05;;
34673;SDS011;20879;55.668;37.858;2023-05-19T11:24:37;4.05;;;1.73;;
34673;SDS011;20879;55.668;37.858;2023-05-19T11:27:21;7.05;;;1.88;;
34673;SDS011;20879;55.668;37.858;2023-05-19T11:32:32;1.77;;;1.52;;
34673;SDS011;20879;55.668;37.858;2023-05-19T11:35:04;3.05;;;1.63;;
34673;SDS011;20879;55.668;37.858;2023-05-19T11:37:35;2.80;;;1.50;;
34673;SDS011;20879;55.668;37.858;2023-05-19T11:40:10;4.15;;;1.08;;
34673;SDS011;20879;55.668;37.858;2023-05-19T11:42:43;7.95;;;2.67;;
34673;SDS011;20879;55.668;37.858;2023-05-19T11:45:12;4.38;;;1.63;;
34673;SDS011;20879;55.668;37.858;2023-05-19T11:47:49;9.30;;;1.83;;
34673;SDS011;20879;55.668;37.858;2023-05-19T11:50:25;5.47;;;1.50;;
34673;SDS011;20879;55.668;37.858;2023-05-19T11:52:55;2.53;;;1.70;;
34673;SDS011;20879;55.668;37.858;2023-05-19T11:55:24;3.38;;;1.70;;
34673;SDS011;20879;55.668;37.858;2023-05-19T11:57:57;5.85;;;1.70;;
34673;SDS011;20879;55.668;37.858;2023-05-19T12:00:45;3.30;;;1.40;;
34673;SDS011;20879;55.668;37.858;2023-05-19T12:03:19;4.97;;;1.90;;
34673;SDS011;20879;55.668;37.858;2023-05-19T12:05:52;3.42;;;1.58;;
34673;SDS011;20879;55.668;37.858;2023-05-19T12:08:28;6.20;;;2.00;;
34673;SDS011;20879;55.668;37.858;2023-05-19T12:10:58;6.57;;;1.42;;
34673;SDS011;20879;55.668;37.858;2023-05-19T12:13:27;3.22;;;1.98;;
34673;SDS011;20879;55.668;37.858;2023-05-19T12:16:03;3.03;;;1.42;;
34673;SDS011;20879;55.668;37.858;2023-05-19T12:18:40;2.92;;;1.45;;
34673;SDS011;20879;55.668;37.858;2023-05-19T12:21:10;4.93;;;1.42;;
34673;SDS011;20879;55.668;37.858;2023-05-19T12:23:40;4.95;;;1.60;;
34673;SDS011;20879;55.668;37.858;2023-05-19T12:26:09;3.45;;;1.38;;
34673;SDS011;20879;55.668;37.858;2023-05-19T12:28:39;6.32;;;1.55;;
34673;SDS011;20879;55.668;37.858;2023-05-19T12:31:09;5.78;;;1.98;;
34673;SDS011;20879;55.668;37.858;2023-05-19T12:33:41;3.80;;;1.65;;
34673;SDS011;20879;55.668;37.858;2023-05-19T12:36:12;4.97;;;1.70;;
34673;SDS011;20879;55.668;37.858;2023-05-19T12:38:44;1.80;;;1.33;;
34673;SDS011;20879;55.668;37.858;2023-05-19T12:41:13;6.22;;;1.75;;
34673;SDS011;20879;55.668;37.858;2023-05-19T12:43:45;3.58;;;1.67;;
34673;SDS011;20879;55.668;37.858;2023-05-19T12:51:20;5.85;;;1.60;;
34673;SDS011;20879;55.668;37.858;2023-05-19T12:53:53;2.45;;;1.20;;
34673;SDS011;20879;55.668;37.858;2023-05-19T12:56:24;3.35;;;1.20;;
34673;SDS011;20879;55.668;37.858;2023-05-19T12:58:54;2.60;;;1.65;;
34673;SDS011;20879;55.668;37.858;2023-05-19T13:01:23;5.50;;;1.65;;
34673;SDS011;20879;55.668;37.858;2023-05-19T13:03:59;1.63;;;1.02;;
34673;SDS011;20879;55.668;37.858;2023-05-19T13:06:34;4.55;;;1.40;;
34673;SDS011;20879;55.668;37.858;2023-05-19T13:09:03;1.88;;;1.42;;
34673;SDS011;20879;55.668;37.858;2023-05-19T13:11:38;2.60;;;1.15;;
34673;SDS011;20879;55.668;37.858;2023-05-19T13:14:20;2.33;;;1.40;;
34673;SDS011;20879;55.668;37.858;2023-05-19T13:17:00;3.95;;;1.33;;
34673;SDS011;20879;55.668;37.858;2023-05-19T13:19:30;2.53;;;1.35;;
34673;SDS011;20879;55.668;37.858;2023-05-19T13:22:07;7.20;;;1.40;;
34673;SDS011;20879;55.668;37.858;2023-05-19T13:24:38;4.40;;;1.50;;
34673;SDS011;20879;55.668;37.858;2023-05-19T13:27:13;4.68;;;1.27;;
34673;SDS011;20879;55.668;37.858;2023-05-19T13:29:42;3.55;;;1.52;;
34673;SDS011;20879;55.668;37.858;2023-05-19T13:32:12;1.35;;;1.20;;
34673;SDS011;20879;55.668;37.858;2023-05-19T13:34:41;3.97;;;1.08;;
34673;SDS011;20879;55.668;37.858;2023-05-19T13:37:13;5.22;;;1.60;;
34673;SDS011;20879;55.668;37.858;2023-05-19T13:39:42;2.13;;;1.15;;
34673;SDS011;20879;55.668;37.858;2023-05-19T13:42:12;4.05;;;1.40;;
34673;SDS011;20879;55.668;37.858;2023-05-19T13:44:46;1.33;;;1.00;;
34673;SDS011;20879;55.668;37.858;2023-05-19T13:47:15;3.75;;;1.58;;
34673;SDS011;20879;55.668;37.858;2023-05-19T13:49:50;3.50;;;1.20;;
34673;SDS011;20879;55.668;37.858;2023-05-19T13:52:26;2.03;;;1.58;;
34673;SDS011;20879;55.668;37.858;2023-05-19T13:57:35;5.22;;;1.40;;
34673;SDS011;20879;55.668;37.858;2023-05-19T14:00:07;2.78;;;1.20;;
34673;SDS011;20879;55.668;37.858;2023-05-19T14:02:44;4.45;;;1.38;;
34673;SDS011;20879;55.668;37.858;2023-05-19T14:05:14;3.70;;;1.63;;
34673;SDS011;20879;55.668;37.858;2023-05-19T14:07:52;8.18;;;1.30;;
34673;SDS011;20879;55.668;37.858;2023-05-19T14:10:21;4.40;;;1.52;;
34673;SDS011;20879;55.668;37.858;2023-05-19T14:12:51;4.53;;;1.35;;
34673;SDS011;20879;55.668;37.858;2023-05-19T14:15:40;3.40;;;1.25;;
34673;SDS011;20879;55.668;37.858;2023-05-19T14:18:10;2.80;;;1.48;;
34673;SDS011;20879;55.668;37.858;2023-05-19T14:20:39;3.90;;;1.45;;
34673;SDS011;20879;55.668;37.858;2023-05-19T14:23:11;7.25;;;1.42;;
34673;SDS011;20879;55.668;37.858;2023-05-19T14:25:41;3.67;;;1.40;;
34673;SDS011;20879;55.668;37.858;2023-05-19T14:28:11;2.83;;;1.30;;
34673;SDS011;20879;55.668;37.858;2023-05-19T14:30:40;5.45;;;1.45;;
34673;SDS011;20879;55.668;37.858;2023-05-19T14:33:10;4.40;;;1.42;;
34673;SDS011;20879;55.668;37.858;2023-05-19T14:35:40;3.15;;;1.30;;
34673;SDS011;20879;55.668;37.858;2023-05-19T14:38:17;3.95;;;1.08;;
34673;SDS011;20879;55.668;37.858;2023-05-19T14:40:47;9.18;;;1.88;;
34673;SDS011;20879;55.668;37.858;2023-05-19T14:43:16;3.78;;;1.60;;
34673;SDS011;20879;55.668;37.858;2023-05-19T14:45:47;2.72;;;1.05;;
34673;SDS011;20879;55.668;37.858;2023-05-19T14:48:22;4.45;;;1.23;;
34673;SDS011;20879;55.668;37.858;2023-05-19T14:50:51;5.28;;;1.42;;
34673;SDS011;20879;55.668;37.858;2023-05-19T14:53:28;7.07;;;1.42;;
34673;SDS011;20879;55.668;37.858;2023-05-19T14:55:57;11.13;;;1.50;;
34673;SDS011;20879;55.668;37.858;2023-05-19T14:58:27;2.03;;;1.40;;
34673;SDS011;20879;55.668;37.858;2023-05-19T15:00:57;6.10;;;1.52;;
34673;SDS011;20879;55.668;37.858;2023-05-19T15:03:26;4.28;;;1.48;;
34673;SDS011;20879;55.668;37.858;2023-05-19T15:08:48;2.38;;;1.70;;
34673;SDS011;20879;55.668;37.858;2023-05-19T15:11:18;5.32;;;1.40;;
34673;SDS011;20879;55.668;37.858;2023-05-19T15:13:48;3.33;;;1.27;;
34673;SDS011;20879;55.668;37.858;2023-05-19T15:16:18;3.70;;;2.20;;
34673;SDS011;20879;55.668;37.858;2023-05-19T15:18:47;3.95;;;1.88;;
34673;SDS011;20879;55.668;37.858;2023-05-19T15:21:22;6.38;;;1.77;;
34673;SDS011;20879;55.668;37.858;2023-05-19T15:23:53;5.00;;;1.55;;
34673;SDS011;20879;55.668;37.858;2023-05-19T15:26:33;4.60;;;1.40;;
34673;SDS011;20879;55.668;37.858;2023-05-19T15:29:03;3.83;;;1.58;;
34673;SDS011;20879;55.668;37.858;2023-05-19T15:31:32;1.42;;;1.13;;
34673;SDS011;20879;55.668;37.858;2023-05-19T15:34:04;2.38;;;1.35;;
34673;SDS011;20879;55.668;37.858;2023-05-19T15:36:33;3.10;;;1.33;;
34673;SDS011;20879;55.668;37.858;2023-05-19T15:39:05;1.83;;;1.20;;
34673;SDS011;20879;55.668;37.858;2023-05-19T15:41:35;2.58;;;1.13;;
34673;SDS011;20879;55.668;37.858;2023-05-19T15:44:05;2.47;;;1.48;;
34673;SDS011;20879;55.668;37.858;2023-05-19T15:46:34;2.35;;;1.23;;
34673;SDS011;20879;55.668;37.858;2023-05-19T15:49:04;2.67;;;1.40;;
34673;SDS011;20879;55.668;37.858;2023-05-19T15:51:39;3.85;;;1.65;;
34673;SDS011;20879;55.668;37.858;2023-05-19T15:54:15;3.03;;;1.92;;